createdAt,value
2018-03-04T00:00:46.801Z,50.60
2018-03-04T00:03:14.261Z,50.33
2018-03-04T00:05:41.727Z,49.40
2018-03-04T00:08:09.196Z,52.47
2018-03-04T00:10:36.670Z,55.80
2018-03-04T00:13:04.122Z,52.97
2018-03-04T00:15:31.592Z,54.93
2018-03-04T00:17:59.049Z,55.70
2018-03-04T00:20:26.520Z,59.87
2018-03-04T00:22:53.975Z,58.17
2018-03-04T00:25:21.444Z,59.67
2018-03-04T00:27:48.902Z,56.80
2018-03-04T00:30:16.380Z,54.47
2018-03-04T00:32:44.598Z,52.13
2018-03-04T00:35:12.074Z,54.43
2018-03-04T00:37:41.042Z,52.13
2018-03-04T00:40:08.515Z,54.17
2018-03-04T00:42:35.978Z,55.07
2018-03-04T00:45:03.586Z,55.13
2018-03-04T00:47:31.037Z,53.93
2018-03-04T00:49:59.258Z,54.70
2018-03-04T00:52:26.722Z,54.93
2018-03-04T00:54:54.174Z,55.93
2018-03-04T00:57:21.651Z,56.23
2018-03-04T00:59:49.107Z,55.27
2018-03-04T01:02:16.572Z,55.03
2018-03-04T01:04:44.033Z,54.00
2018-03-04T01:07:11.498Z,52.63
2018-03-04T01:09:38.965Z,56.00
2018-03-04T01:12:06.431Z,54.63
2018-03-04T01:14:33.896Z,55.57
2018-03-04T01:17:01.363Z,54.63
2018-03-04T01:19:28.836Z,55.57
2018-03-04T01:21:56.307Z,55.43
2018-03-04T01:24:23.774Z,55.97
2018-03-04T01:26:51.265Z,55.43
2018-03-04T01:29:19.488Z,56.47
2018-03-04T01:31:46.944Z,57.10
2018-03-04T01:34:14.405Z,56.50
2018-03-04T01:36:42.650Z,56.37
2018-03-04T01:39:10.109Z,55.57
2018-03-04T01:41:37.588Z,55.33
2018-03-04T01:44:05.049Z,56.83
2018-03-04T01:46:32.510Z,56.07
2018-03-04T01:48:59.980Z,57.73
2018-03-04T01:51:39.174Z,54.33
2018-03-04T01:54:06.645Z,57.23
2018-03-04T01:56:34.886Z,57.30
2018-03-04T01:59:02.338Z,55.17
2018-03-04T02:01:29.966Z,57.17
2018-03-04T02:03:57.418Z,56.30
2018-03-04T02:06:24.900Z,58.50
2018-03-04T02:08:52.369Z,57.43
2018-03-04T02:11:19.830Z,57.87
2018-03-04T02:13:47.305Z,56.87
2018-03-04T02:16:14.775Z,58.97
2018-03-04T02:18:42.230Z,56.80
2018-03-04T02:21:09.714Z,58.47
2018-03-04T02:23:37.169Z,56.70
2018-03-04T02:26:04.625Z,56.27
2018-03-04T02:28:32.102Z,56.73
2018-03-04T02:31:00.355Z,56.77
2018-03-04T02:33:27.798Z,57.80
2018-03-04T02:35:55.259Z,59.97
2018-03-04T02:38:22.752Z,58.93
2018-03-04T02:40:50.245Z,56.60
2018-03-04T02:43:17.708Z,57.83
2018-03-04T02:45:45.163Z,56.77
2018-03-04T02:48:12.625Z,55.00
2018-03-04T02:50:40.082Z,53.47
2018-03-04T02:53:07.556Z,55.53
2018-03-04T02:55:35.017Z,57.03
2018-03-04T02:58:02.490Z,55.30
2018-03-04T03:00:29.952Z,56.10
2018-03-04T03:02:57.414Z,57.73
2018-03-04T03:05:25.643Z,56.37
2018-03-04T03:07:54.020Z,55.57
2018-03-04T03:10:21.486Z,56.47
2018-03-04T03:12:48.949Z,56.30
2018-03-04T03:15:16.410Z,55.53
2018-03-04T03:17:43.874Z,56.43
2018-03-04T03:20:13.284Z,57.97
2018-03-04T03:22:40.770Z,56.97
2018-03-04T03:25:08.999Z,58.17
2018-03-04T03:27:36.476Z,59.57
2018-03-04T03:30:03.949Z,57.20
2018-03-04T03:32:31.407Z,56.50
2018-03-04T03:34:58.878Z,55.80
2018-03-04T03:37:26.371Z,55.80
2018-03-04T03:39:53.843Z,55.00
2018-03-04T03:42:21.316Z,55.23
2018-03-04T03:44:48.783Z,53.83
2018-03-04T03:47:16.256Z,54.50
2018-03-04T03:49:44.486Z,53.97
2018-03-04T03:52:11.950Z,52.57
2018-03-04T03:54:39.423Z,53.67
2018-03-04T03:57:06.894Z,53.27
2018-03-04T03:59:34.363Z,53.57
2018-03-04T04:02:01.824Z,52.50
2018-03-04T04:04:29.319Z,54.43
2018-03-04T04:06:56.773Z,53.93
2018-03-04T04:09:24.236Z,53.07
2018-03-04T04:11:51.722Z,53.03
2018-03-04T04:14:19.186Z,52.57
2018-03-04T04:16:47.411Z,52.80
2018-03-04T04:19:14.871Z,52.37
2018-03-04T04:21:42.348Z,54.13
2018-03-04T04:24:09.811Z,53.07
2018-03-04T04:26:37.283Z,53.90
2018-03-04T04:29:04.754Z,54.47
2018-03-04T04:31:32.234Z,53.60
2018-03-04T04:33:59.707Z,51.93
2018-03-04T04:36:27.180Z,54.90
2018-03-04T04:38:54.639Z,54.70
2018-03-04T04:41:22.112Z,53.47
2018-03-04T04:43:49.566Z,54.03
2018-03-04T04:46:17.043Z,53.97
2018-03-04T04:48:45.278Z,54.47
2018-03-04T04:51:12.763Z,54.93
2018-03-04T04:53:40.235Z,54.43
2018-03-04T04:56:07.694Z,54.07
2018-03-04T04:58:35.168Z,54.63
2018-03-04T05:01:02.633Z,53.57
2018-03-04T05:03:30.099Z,54.37
2018-03-04T05:05:57.559Z,54.33
2018-03-04T05:08:25.048Z,54.53
2018-03-04T05:10:52.523Z,54.80
2018-03-04T05:13:19.991Z,53.13
2018-03-04T05:15:48.225Z,54.20
2018-03-04T05:18:15.723Z,54.00
2018-03-04T05:20:43.193Z,53.57
2018-03-04T05:23:10.652Z,51.43
2018-03-04T05:25:38.120Z,51.43
2018-03-04T05:28:05.586Z,53.57
2018-03-04T05:30:33.048Z,53.77
2018-03-04T05:33:00.526Z,54.03
2018-03-04T05:35:27.991Z,52.97
2018-03-04T05:37:55.467Z,53.90
2018-03-04T05:40:22.930Z,53.03
2018-03-04T05:42:51.148Z,51.40
2018-03-04T05:45:18.621Z,55.03
2018-03-04T05:47:46.091Z,53.17
2018-03-04T05:50:13.560Z,53.30
2018-03-04T05:52:41.033Z,54.63
2018-03-04T05:55:08.524Z,52.73
2018-03-04T05:57:35.982Z,54.03
2018-03-04T06:00:03.447Z,52.33
2018-03-04T06:02:30.903Z,51.93
2018-03-04T06:04:58.382Z,53.97
2018-03-04T06:07:25.875Z,55.03
2018-03-04T06:09:54.119Z,54.50
2018-03-04T06:12:21.622Z,53.47
2018-03-04T06:14:49.066Z,53.90
2018-03-04T06:17:16.543Z,52.83
2018-03-04T06:19:44.009Z,53.83
2018-03-04T06:22:11.471Z,51.80
2018-03-04T06:24:38.945Z,53.67
2018-03-04T06:27:06.394Z,52.87
2018-03-04T06:29:33.878Z,52.40
2018-03-04T06:32:01.342Z,52.03
2018-03-04T06:34:28.807Z,52.83
2018-03-04T06:39:30.220Z,52.03
2018-03-04T06:41:57.671Z,52.03
2018-03-04T06:44:25.145Z,52.50
2018-03-04T06:46:52.609Z,50.93
2018-03-04T06:49:20.068Z,52.43
2018-03-04T06:51:47.555Z,51.73
2018-03-04T06:54:15.016Z,50.60
2018-03-04T06:56:42.488Z,51.70
2018-03-04T06:59:09.950Z,52.60
2018-03-04T07:01:37.419Z,53.13
2018-03-04T07:04:04.874Z,50.60
2018-03-04T07:06:32.346Z,52.37
2018-03-04T07:08:59.813Z,51.23
2018-03-04T07:11:27.279Z,51.50
2018-03-04T07:13:54.749Z,51.30
2018-03-04T07:16:22.222Z,53.40
2018-03-04T07:18:49.679Z,51.63
2018-03-04T07:21:17.159Z,50.90
2018-03-04T07:23:44.616Z,49.10
2018-03-04T07:26:12.075Z,54.13
2018-03-04T07:28:39.547Z,52.33
2018-03-04T07:31:07.051Z,51.03
2018-03-04T07:33:34.518Z,51.03
2018-03-04T07:36:01.980Z,52.87
2018-03-04T07:38:29.454Z,52.50
2018-03-04T07:40:57.674Z,52.37
2018-03-04T07:43:25.153Z,50.77
2018-03-04T07:45:52.602Z,53.23
2018-03-04T07:48:20.084Z,51.90
2018-03-04T07:50:47.542Z,54.83
2018-03-04T07:53:15.011Z,52.80
2018-03-04T07:55:42.477Z,53.10
2018-03-04T07:58:09.948Z,52.57
2018-03-04T08:00:37.417Z,53.53
2018-03-04T08:03:04.896Z,52.83
2018-03-04T08:05:32.374Z,52.47
2018-03-04T08:07:59.835Z,53.03
2018-03-04T08:10:27.350Z,55.10
2018-03-04T08:12:54.810Z,54.07
2018-03-04T08:15:22.287Z,52.33
2018-03-04T08:17:49.750Z,53.73
2018-03-04T08:20:17.220Z,52.40
2018-03-04T08:22:44.687Z,51.93
2018-03-04T08:25:23.931Z,52.57
2018-03-04T08:28:03.288Z,52.40
2018-03-04T08:30:30.766Z,54.53
2018-03-04T08:32:58.227Z,52.20
2018-03-04T08:35:25.714Z,52.03
2018-03-04T08:37:53.186Z,52.50
2018-03-04T08:40:20.697Z,51.87
2018-03-04T08:42:48.124Z,51.20
2018-03-04T08:45:15.584Z,52.20
2018-03-04T08:47:43.254Z,52.20
2018-03-04T08:50:10.719Z,52.57
2018-03-04T08:52:38.199Z,53.93
2018-03-04T08:55:05.731Z,50.77
2018-03-04T08:57:33.215Z,51.20
2018-03-04T09:00:00.687Z,52.03
2018-03-04T09:02:28.159Z,52.20
2018-03-04T09:04:56.383Z,52.00
2018-03-04T09:07:23.860Z,50.63
2018-03-04T09:09:51.335Z,51.33
2018-03-04T09:12:18.799Z,50.07
2018-03-04T09:14:46.299Z,51.93
2018-03-04T09:17:13.756Z,52.27
2018-03-04T09:19:41.226Z,52.33
2018-03-04T09:22:08.714Z,52.90
2018-03-04T09:24:36.178Z,52.57
2018-03-04T09:27:03.686Z,51.30
2018-03-04T09:29:31.167Z,52.23
2018-03-04T09:31:58.635Z,53.43
2018-03-04T09:34:26.101Z,52.70
2018-03-04T09:36:53.563Z,52.33
2018-03-04T09:39:21.026Z,53.03
2018-03-04T09:41:48.498Z,52.77
2018-03-04T09:44:15.988Z,52.73
2018-03-04T09:46:43.457Z,51.33
2018-03-04T09:49:10.919Z,50.77
2018-03-04T09:51:38.387Z,50.87
2018-03-04T09:54:05.867Z,50.67
2018-03-04T09:56:33.335Z,53.90
2018-03-04T09:59:00.836Z,52.53
2018-03-04T10:01:28.307Z,53.37
2018-03-04T10:03:55.795Z,55.07
2018-03-04T10:06:23.279Z,52.63
2018-03-04T10:08:50.805Z,54.00
2018-03-04T10:11:18.231Z,53.40
2018-03-04T10:13:45.706Z,52.50
2018-03-04T10:16:13.160Z,53.80
2018-03-04T10:18:40.658Z,52.93
2018-03-04T10:21:08.131Z,52.70
2018-03-04T10:23:35.596Z,54.43
2018-03-04T10:26:03.079Z,52.90
2018-03-04T10:28:30.541Z,53.93
2018-03-04T10:30:58.010Z,54.90
2018-03-04T10:33:25.467Z,52.23
2018-03-04T10:35:52.970Z,52.90
2018-03-04T10:38:20.463Z,54.37
2018-03-04T10:40:47.943Z,53.33
2018-03-04T10:43:15.399Z,53.80
2018-03-04T10:45:42.876Z,51.83
2018-03-04T10:48:11.102Z,51.57
2018-03-04T10:50:38.579Z,54.00
2018-03-04T10:53:06.040Z,53.87
2018-03-04T10:55:33.507Z,52.40
2018-03-04T10:58:00.971Z,54.20
2018-03-04T11:00:28.449Z,54.33
2018-03-04T11:03:00.331Z,51.07
2018-03-04T11:05:28.025Z,51.20
2018-03-04T11:07:55.503Z,51.70
2018-03-04T11:10:23.134Z,53.67
2018-03-04T11:12:50.618Z,50.73
2018-03-04T11:15:18.093Z,52.13
2018-03-04T11:17:45.563Z,50.63
2018-03-04T11:20:13.040Z,52.37
2018-03-04T11:22:40.531Z,53.60
2018-03-04T11:25:07.990Z,51.10
2018-03-04T11:27:35.451Z,48.93
2018-03-04T11:30:02.936Z,50.63
2018-03-04T11:32:31.167Z,51.87
2018-03-04T11:34:58.637Z,51.73
2018-03-04T11:37:26.130Z,51.53
2018-03-04T11:39:54.354Z,50.83
2018-03-04T11:42:21.832Z,52.17
2018-03-04T11:44:49.287Z,49.07
2018-03-04T11:47:16.755Z,49.10
2018-03-04T11:49:44.216Z,50.50
2018-03-04T11:52:11.687Z,46.67
2018-03-04T11:54:39.143Z,47.17
2018-03-04T11:57:06.623Z,44.70
2018-03-04T11:59:34.092Z,45.47
2018-03-04T12:02:01.556Z,42.93
2018-03-04T12:04:29.104Z,41.77
2018-03-04T12:06:56.574Z,40.97
2018-03-04T12:09:24.692Z,39.57
2018-03-04T12:11:52.118Z,40.80
2018-03-04T12:14:19.586Z,38.40
2018-03-04T12:16:47.066Z,39.10
2018-03-04T12:19:15.334Z,42.17
2018-03-04T12:21:42.769Z,40.03
2018-03-04T12:24:10.258Z,43.00
2018-03-04T12:26:38.487Z,39.83
2018-03-04T12:29:05.963Z,41.83
2018-03-04T12:31:33.424Z,41.60
2018-03-04T12:34:00.903Z,39.83
2018-03-04T12:36:29.143Z,40.43
2018-03-04T12:38:56.658Z,41.50
2018-03-04T12:41:24.150Z,41.97
2018-03-04T12:43:51.610Z,41.37
2018-03-04T12:46:19.076Z,39.40
2018-03-04T12:48:46.575Z,39.13
2018-03-04T12:51:14.044Z,38.80
2018-03-04T12:53:41.527Z,39.10
2018-03-04T12:56:09.045Z,38.33
2018-03-04T12:58:36.478Z,37.77
2018-03-04T13:01:03.955Z,36.73
2018-03-04T13:03:31.449Z,36.90
2018-03-04T13:05:58.956Z,36.80
2018-03-04T13:08:27.190Z,35.83
2018-03-04T13:10:54.655Z,36.37
2018-03-04T13:13:22.114Z,36.17
2018-03-04T13:15:49.591Z,36.43
2018-03-04T13:18:17.118Z,33.83
2018-03-04T13:20:45.307Z,34.23
2018-03-04T13:23:12.775Z,34.13
2018-03-04T13:25:40.251Z,34.40
2018-03-04T13:28:07.720Z,34.97
2018-03-04T13:30:35.187Z,34.00
2018-03-04T13:33:02.652Z,34.03
2018-03-04T13:35:30.127Z,33.03
2018-03-04T13:37:57.601Z,32.47
2018-03-04T13:40:25.079Z,32.67
2018-03-04T13:42:52.578Z,32.37
2018-03-04T13:45:20.048Z,33.53
2018-03-04T13:49:01.152Z,32.17
2018-03-04T13:51:28.627Z,32.50
2018-03-04T13:53:56.091Z,32.80
2018-03-04T13:56:23.615Z,33.23
2018-03-04T13:58:51.088Z,32.87
2018-03-04T14:01:18.578Z,32.27
2018-03-04T14:03:46.138Z,34.10
2018-03-04T14:07:59.902Z,32.60
2018-03-04T14:10:27.432Z,37.97
2018-03-04T14:12:54.898Z,33.67
2018-03-04T14:15:22.371Z,33.13
2018-03-04T14:19:23.870Z,31.13
2018-03-04T14:21:51.336Z,31.83
2018-03-04T14:24:18.811Z,31.00
2018-03-04T14:26:46.266Z,29.03
2018-03-04T14:29:13.749Z,28.27
2018-03-04T14:31:41.970Z,30.03
2018-03-04T14:34:09.439Z,29.37
2018-03-04T14:37:24.372Z,31.03
2018-03-04T14:41:48.067Z,28.97
2018-03-04T14:44:15.596Z,29.60
2018-03-04T14:46:43.128Z,30.23
2018-03-04T14:49:10.592Z,30.43
2018-03-04T17:27:29.651Z,28.83
2018-03-04T17:29:57.112Z,28.80
2018-03-04T17:32:24.596Z,30.00
2018-03-04T17:34:52.068Z,28.97
2018-03-04T17:37:19.595Z,29.33
2018-03-04T17:39:47.047Z,28.70
2018-03-04T17:42:14.534Z,29.10
2018-03-04T17:44:41.987Z,28.90
2018-03-04T17:47:09.458Z,27.37
2018-03-04T17:49:36.926Z,27.80
2018-03-04T17:52:04.403Z,28.90
2018-03-04T17:54:31.863Z,28.60
2018-03-04T17:56:59.373Z,28.40
2018-03-04T17:59:27.610Z,28.47
2018-03-04T18:01:55.079Z,30.60
2018-03-04T18:04:22.540Z,29.77
2018-03-04T18:06:49.998Z,29.97
2018-03-04T18:09:17.472Z,30.77
2018-03-04T18:11:44.980Z,31.27
2018-03-04T18:14:12.468Z,31.00
2018-03-04T18:16:39.939Z,30.70
2018-03-04T18:19:07.451Z,30.20
2018-03-04T18:21:34.951Z,30.47
2018-03-04T18:24:02.427Z,31.47
2018-03-04T18:26:29.898Z,30.60
2018-03-04T18:28:57.386Z,30.23
2018-03-04T18:31:24.843Z,31.17
2018-03-04T18:33:52.305Z,31.20
2018-03-04T18:36:19.763Z,30.80
2018-03-04T18:38:47.244Z,31.00
2018-03-04T18:41:14.727Z,30.53
2018-03-04T18:43:42.202Z,29.67
2018-03-04T18:46:09.664Z,30.87
2018-03-04T18:48:37.256Z,29.97
2018-03-04T18:51:04.719Z,30.23
2018-03-04T18:53:32.188Z,28.53
2018-03-04T18:55:59.647Z,29.20
2018-03-04T18:58:27.131Z,29.60
2018-03-04T19:00:54.599Z,30.40
2018-03-04T19:03:22.048Z,30.57
2018-03-04T19:05:49.528Z,30.63
2018-03-04T19:08:16.979Z,29.23
2018-03-04T19:10:44.448Z,31.43
2018-03-04T19:13:11.898Z,30.20
2018-03-04T19:15:39.371Z,28.63
2018-03-04T19:18:07.595Z,30.67
2018-03-04T19:20:35.835Z,33.55
2018-03-04T19:23:03.294Z,30.73
2018-03-04T19:25:30.765Z,29.73
2018-03-04T19:27:58.216Z,31.23
2018-03-04T19:30:25.682Z,30.90
2018-03-04T19:32:53.132Z,30.57
2018-03-04T19:35:20.598Z,31.60
2018-03-04T19:37:48.056Z,31.33
2018-03-04T19:40:15.532Z,31.27
2018-03-04T19:42:42.988Z,29.87
2018-03-04T19:45:10.455Z,29.87
2018-03-04T19:47:37.911Z,28.50
2018-03-04T19:50:05.391Z,30.37
2018-03-04T19:52:32.844Z,30.60
2018-03-04T19:55:00.323Z,30.77
2018-03-04T19:57:27.779Z,29.87
2018-03-04T19:59:55.256Z,29.03
2018-03-04T20:02:22.719Z,30.13
2018-03-04T20:04:50.175Z,29.40
2018-03-04T20:07:17.660Z,29.63
2018-03-04T20:09:45.887Z,28.90
2018-03-04T20:12:13.360Z,29.67
2018-03-04T20:14:40.824Z,29.80
2018-03-04T20:17:08.299Z,29.87
2018-03-04T20:19:35.763Z,30.13
2018-03-04T20:22:03.223Z,31.07
2018-03-04T20:24:30.694Z,30.70
2018-03-04T20:26:58.159Z,30.73
2018-03-04T20:29:25.632Z,30.20
2018-03-04T20:31:53.144Z,30.97
2018-03-04T20:34:20.563Z,30.47
2018-03-04T20:36:48.031Z,30.50
2018-03-04T20:39:15.487Z,32.70
2018-03-04T20:41:42.959Z,29.67
2018-03-04T20:44:11.200Z,29.80
2018-03-04T20:46:38.670Z,30.20
2018-03-04T20:49:06.132Z,30.13
2018-03-04T20:51:33.600Z,30.60
2018-03-04T20:54:01.056Z,30.17
2018-03-04T20:56:28.510Z,29.90
2018-03-04T20:58:55.982Z,30.20
2018-03-04T21:01:23.444Z,31.13
2018-03-04T21:03:50.912Z,29.60
2018-03-04T21:06:18.377Z,30.43
2018-03-04T21:08:45.850Z,30.03
2018-03-04T21:11:13.316Z,29.57
2018-03-04T21:13:40.784Z,29.10
2018-03-04T21:16:08.243Z,29.93
2018-03-04T21:18:35.711Z,29.37
2018-03-04T21:21:03.167Z,28.13
2018-03-04T21:23:30.631Z,26.87
2018-03-04T21:25:58.095Z,27.43
2018-03-04T21:28:25.564Z,28.87
2018-03-04T21:30:53.780Z,27.93
2018-03-04T21:33:21.238Z,28.20
2018-03-04T21:35:49.511Z,30.00
2018-03-04T21:38:16.979Z,29.93
2018-03-04T21:40:44.436Z,29.67
2018-03-04T21:43:11.910Z,29.37
2018-03-04T21:45:39.367Z,29.00
2018-03-04T21:48:06.837Z,29.23
2018-03-04T21:50:34.301Z,29.57
2018-03-04T21:53:01.771Z,28.30
2018-03-04T21:55:29.242Z,27.87
2018-03-04T21:57:56.717Z,28.30
2018-03-04T22:00:24.175Z,28.60
2018-03-04T22:02:52.473Z,27.67
2018-03-04T22:05:19.923Z,27.40
2018-03-04T22:07:47.426Z,27.70
2018-03-04T22:10:14.894Z,27.40
2018-03-04T22:12:42.359Z,28.33
2018-03-04T22:15:09.828Z,28.53
2018-03-04T22:17:37.299Z,29.63
2018-03-04T22:20:04.772Z,28.60
2018-03-04T22:22:32.231Z,27.77
2018-03-04T22:24:59.716Z,27.23
2018-03-04T22:27:27.196Z,26.90
2018-03-04T22:29:54.676Z,28.23
2018-03-04T22:32:22.165Z,27.13
2018-03-04T22:34:49.640Z,26.30
2018-03-04T22:37:17.119Z,27.90
2018-03-04T22:39:45.353Z,27.03
2018-03-04T22:42:12.812Z,26.67
2018-03-04T22:44:40.295Z,27.30
2018-03-04T22:47:07.772Z,26.30
2018-03-04T22:49:35.244Z,28.63
2018-03-04T22:52:02.702Z,26.63
2018-03-04T22:54:30.213Z,27.47
2018-03-04T22:56:57.688Z,26.73
2018-03-04T22:59:25.189Z,26.43
2018-03-04T23:01:52.644Z,29.73
2018-03-04T23:04:20.104Z,26.43
2018-03-04T23:06:47.605Z,27.80
2018-03-04T23:09:15.067Z,27.37
2018-03-04T23:11:42.539Z,25.17
2018-03-04T23:14:09.991Z,27.00
2018-03-04T23:16:37.471Z,27.30
2018-03-04T23:19:05.698Z,27.47
2018-03-04T23:21:33.170Z,26.67
2018-03-04T23:24:00.631Z,28.00
2018-03-04T23:26:28.088Z,26.63
2018-03-04T23:28:55.543Z,27.13
2018-03-04T23:31:23.016Z,27.53
2018-03-04T23:33:51.230Z,27.03
2018-03-04T23:36:18.707Z,26.93
2018-03-04T23:38:46.171Z,27.17
2018-03-04T23:41:13.648Z,26.93
2018-03-04T23:43:41.099Z,25.90
2018-03-04T23:46:08.556Z,25.97
2018-03-04T23:48:36.019Z,26.53
2018-03-04T23:51:03.475Z,25.80
2018-03-04T23:53:30.936Z,25.77
2018-03-04T23:55:58.395Z,26.00
2018-03-04T23:58:25.859Z,25.07
